sensor_id;sensor_type;location;lat;lon;timestamp;pressure;altitude;pressure_sealevel;temperature;humidity
37848;BME280;23688;33.130;-117.188;2024-01-10T00:00:04;99772.31;;;13.94;40.24
37848;BME280;23688;33.130;-117.188;2024-01-10T00:02:30;99805.53;;;14.26;38.17
37848;BME280;23688;33.130;-117.188;2024-01-10T00:04:56;99797.84;;;14.31;38.65
37848;BME280;23688;33.130;-117.188;2024-01-10T00:07:23;99813.19;;;14.20;40.53
37848;BME280;23688;33.130;-117.188;2024-01-10T00:09:51;99795.22;;;14.02;41.20
37848;BME280;23688;33.130;-117.188;2024-01-10T00:12:18;99801.88;;;13.93;42.14
37848;BME280;23688;33.130;-117.188;2024-01-10T00:14:44;99794.94;;;13.95;43.61
37848;BME280;23688;33.130;-117.188;2024-01-10T00:17:10;99795.94;;;13.71;45.30
37848;BME280;23688;33.130;-117.188;2024-01-10T00:19:37;99795.94;;;13.71;45.90
37848;BME280;23688;33.130;-117.188;2024-01-10T00:22:04;99808.88;;;13.68;46.35
37848;BME280;23688;33.130;-117.188;2024-01-10T00:24:30;99787.38;;;13.49;47.37
37848;BME280;23688;33.130;-117.188;2024-01-10T00:26:59;99801.53;;;13.56;47.44
37848;BME280;23688;33.130;-117.188;2024-01-10T00:29:25;99799.56;;;13.51;47.28
37848;BME280;23688;33.130;-117.188;2024-01-10T00:31:51;99800.56;;;13.54;48.19
37848;BME280;23688;33.130;-117.188;2024-01-10T00:34:18;99808.97;;;13.45;48.73
37848;BME280;23688;33.130;-117.188;2024-01-10T00:36:44;99796.59;;;13.40;48.89
37848;BME280;23688;33.130;-117.188;2024-01-10T00:39:11;99806.00;;;13.35;49.26
37848;BME280;23688;33.130;-117.188;2024-01-10T00:41:37;99809.75;;;13.43;49.65
37848;BME280;23688;33.130;-117.188;2024-01-10T00:44:03;99799.31;;;13.43;49.05
37848;BME280;23688;33.130;-117.188;2024-01-10T00:46:29;99808.34;;;13.53;49.09
37848;BME280;23688;33.130;-117.188;2024-01-10T00:48:56;99799.25;;;13.67;49.02
37848;BME280;23688;33.130;-117.188;2024-01-10T00:51:22;99799.72;;;13.81;48.96
37848;BME280;23688;33.130;-117.188;2024-01-10T00:53:48;99790.13;;;13.54;49.59
37848;BME280;23688;33.130;-117.188;2024-01-10T00:56:15;99785.53;;;13.73;49.65
37848;BME280;23688;33.130;-117.188;2024-01-10T00:58:41;99782.69;;;13.92;49.32
37848;BME280;23688;33.130;-117.188;2024-01-10T01:01:07;99777.38;;;13.89;48.72
37848;BME280;23688;33.130;-117.188;2024-01-10T01:03:34;99776.41;;;13.85;48.39
37848;BME280;23688;33.130;-117.188;2024-01-10T01:06:01;99764.63;;;13.71;48.47
37848;BME280;23688;33.130;-117.188;2024-01-10T01:08:28;99776.56;;;13.64;48.51
37848;BME280;23688;33.130;-117.188;2024-01-10T01:10:54;99765.72;;;13.52;48.80
37848;BME280;23688;33.130;-117.188;2024-01-10T01:13:20;99781.28;;;13.49;48.77
37848;BME280;23688;33.130;-117.188;2024-01-10T01:15:47;99773.97;;;13.39;49.46
37848;BME280;23688;33.130;-117.188;2024-01-10T01:18:13;99761.50;;;13.30;50.11
37848;BME280;23688;33.130;-117.188;2024-01-10T01:20:40;99768.06;;;13.20;50.59
37848;BME280;23688;33.130;-117.188;2024-01-10T01:23:06;99754.44;;;13.03;50.59
37848;BME280;23688;33.130;-117.188;2024-01-10T01:25:33;99759.50;;;12.99;51.63
37848;BME280;23688;33.130;-117.188;2024-01-10T01:27:59;99758.94;;;12.83;51.92
37848;BME280;23688;33.130;-117.188;2024-01-10T01:30:25;99778.78;;;12.80;52.56
37848;BME280;23688;33.130;-117.188;2024-01-10T01:32:52;99765.63;;;12.77;52.87
37848;BME280;23688;33.130;-117.188;2024-01-10T01:35:18;99757.72;;;12.74;53.33
37848;BME280;23688;33.130;-117.188;2024-01-10T01:37:47;99767.72;;;12.63;53.52
37848;BME280;23688;33.130;-117.188;2024-01-10T01:40:14;99775.91;;;12.50;53.78
37848;BME280;23688;33.130;-117.188;2024-01-10T01:42:40;99773.91;;;12.42;54.61
37848;BME280;23688;33.130;-117.188;2024-01-10T01:45:07;99773.69;;;12.36;55.49
37848;BME280;23688;33.130;-117.188;2024-01-10T01:47:33;99770.06;;;12.33;56.32
37848;BME280;23688;33.130;-117.188;2024-01-10T01:49:59;99762.81;;;12.24;56.40
37848;BME280;23688;33.130;-117.188;2024-01-10T01:52:27;99764.16;;;12.14;56.90
37848;BME280;23688;33.130;-117.188;2024-01-10T01:54:55;99775.44;;;12.15;57.38
37848;BME280;23688;33.130;-117.188;2024-01-10T01:57:21;99769.94;;;12.07;57.64
37848;BME280;23688;33.130;-117.188;2024-01-10T01:59:48;99768.81;;;12.01;58.06
37848;BME280;23688;33.130;-117.188;2024-01-10T02:02:16;99737.56;;;11.79;58.80
37848;BME280;23688;33.130;-117.188;2024-01-10T02:04:46;99721.44;;;11.66;59.92
37848;BME280;23688;33.130;-117.188;2024-01-10T02:07:12;99750.91;;;11.66;61.25
37848;BME280;23688;33.130;-117.188;2024-01-10T02:09:39;99759.03;;;11.53;61.79
37848;BME280;23688;33.130;-117.188;2024-01-10T02:12:05;99759.78;;;11.50;63.06
37848;BME280;23688;33.130;-117.188;2024-01-10T02:14:32;99757.94;;;11.48;64.16
37848;BME280;23688;33.130;-117.188;2024-01-10T02:16:58;99765.94;;;11.52;64.67
37848;BME280;23688;33.130;-117.188;2024-01-10T02:19:24;99752.69;;;11.46;64.13
37848;BME280;23688;33.130;-117.188;2024-01-10T02:21:52;99760.94;;;11.57;64.26
37848;BME280;23688;33.130;-117.188;2024-01-10T02:24:21;99726.34;;;11.39;63.70
37848;BME280;23688;33.130;-117.188;2024-01-10T02:26:48;99752.88;;;11.30;64.02
37848;BME280;23688;33.130;-117.188;2024-01-10T02:29:15;99761.03;;;11.18;66.60
37848;BME280;23688;33.130;-117.188;2024-01-10T02:31:42;99760.03;;;11.14;67.73
37848;BME280;23688;33.130;-117.188;2024-01-10T02:34:08;99775.75;;;11.18;66.71
37848;BME280;23688;33.130;-117.188;2024-01-10T02:36:35;99773.78;;;11.12;67.03
37848;BME280;23688;33.130;-117.188;2024-01-10T02:39:01;99734.22;;;11.00;67.92
37848;BME280;23688;33.130;-117.188;2024-01-10T02:41:27;99751.00;;;11.06;68.12
37848;BME280;23688;33.130;-117.188;2024-01-10T02:43:54;99734.47;;;10.85;68.12
37848;BME280;23688;33.130;-117.188;2024-01-10T02:46:25;99751.88;;;10.87;69.09
37848;BME280;23688;33.130;-117.188;2024-01-10T02:48:54;99732.41;;;10.78;69.69
37848;BME280;23688;33.130;-117.188;2024-01-10T02:51:21;99765.03;;;10.90;70.70
37848;BME280;23688;33.130;-117.188;2024-01-10T02:53:50;99763.03;;;10.85;71.51
37848;BME280;23688;33.130;-117.188;2024-01-10T02:56:16;99759.34;;;10.80;71.47
37848;BME280;23688;33.130;-117.188;2024-01-10T02:58:42;99748.63;;;10.72;70.78
37848;BME280;23688;33.130;-117.188;2024-01-10T03:01:09;99763.44;;;10.75;71.54
37848;BME280;23688;33.130;-117.188;2024-01-10T03:03:35;99773.69;;;10.71;71.72
37848;BME280;23688;33.130;-117.188;2024-01-10T03:06:02;99772.47;;;10.63;71.36
37848;BME280;23688;33.130;-117.188;2024-01-10T03:08:28;99762.28;;;10.48;71.67
37848;BME280;23688;33.130;-117.188;2024-01-10T03:10:54;99758.59;;;10.25;72.37
37848;BME280;23688;33.130;-117.188;2024-01-10T03:13:21;99758.97;;;10.15;73.52
37848;BME280;23688;33.130;-117.188;2024-01-10T03:15:47;99757.34;;;9.99;74.49
37848;BME280;23688;33.130;-117.188;2024-01-10T03:18:14;99761.59;;;9.97;74.62
37848;BME280;23688;33.130;-117.188;2024-01-10T03:20:40;99746.56;;;9.90;75.51
37848;BME280;23688;33.130;-117.188;2024-01-10T03:23:07;99741.88;;;9.83;75.62
37848;BME280;23688;33.130;-117.188;2024-01-10T03:25:33;99738.38;;;9.82;77.07
37848;BME280;23688;33.130;-117.188;2024-01-10T03:27:59;99747.72;;;9.79;77.38
37848;BME280;23688;33.130;-117.188;2024-01-10T03:30:25;99757.78;;;9.73;77.59
37848;BME280;23688;33.130;-117.188;2024-01-10T03:32:52;99753.53;;;9.73;78.51
37848;BME280;23688;33.130;-117.188;2024-01-10T03:35:18;99756.03;;;9.72;78.72
37848;BME280;23688;33.130;-117.188;2024-01-10T03:37:44;99758.47;;;9.69;78.82
37848;BME280;23688;33.130;-117.188;2024-01-10T03:40:11;99761.94;;;9.69;78.36
37848;BME280;23688;33.130;-117.188;2024-01-10T03:42:38;99768.00;;;9.70;78.11
37848;BME280;23688;33.130;-117.188;2024-01-10T03:45:05;99760.09;;;9.67;78.16
37848;BME280;23688;33.130;-117.188;2024-01-10T03:47:31;99767.66;;;9.62;78.90
37848;BME280;23688;33.130;-117.188;2024-01-10T03:49:57;99760.81;;;9.46;78.78
37848;BME280;23688;33.130;-117.188;2024-01-10T03:52:24;99768.59;;;9.46;79.38
37848;BME280;23688;33.130;-117.188;2024-01-10T03:54:52;99775.16;;;9.39;79.32
37848;BME280;23688;33.130;-117.188;2024-01-10T03:57:18;99771.38;;;9.33;79.38
37848;BME280;23688;33.130;-117.188;2024-01-10T03:59:45;99771.22;;;9.30;80.00
37848;BME280;23688;33.130;-117.188;2024-01-10T04:02:11;99774.59;;;9.29;80.43
37848;BME280;23688;33.130;-117.188;2024-01-10T04:04:38;99780.53;;;9.26;80.31
37848;BME280;23688;33.130;-117.188;2024-01-10T04:07:04;99765.72;;;9.24;80.58
37848;BME280;23688;33.130;-117.188;2024-01-10T04:09:30;99778.63;;;9.22;81.29
37848;BME280;23688;33.130;-117.188;2024-01-10T04:11:57;99775.28;;;9.25;81.53
37848;BME280;23688;33.130;-117.188;2024-01-10T04:14:23;99770.25;;;9.28;81.78
37848;BME280;23688;33.130;-117.188;2024-01-10T04:16:51;99762.16;;;9.21;81.63
37848;BME280;23688;33.130;-117.188;2024-01-10T04:19:18;99772.03;;;9.29;81.38
37848;BME280;23688;33.130;-117.188;2024-01-10T04:21:44;99768.41;;;9.25;81.67
37848;BME280;23688;33.130;-117.188;2024-01-10T04:24:10;99777.16;;;9.27;81.85
37848;BME280;23688;33.130;-117.188;2024-01-10T04:26:37;99780.53;;;9.26;82.64
37848;BME280;23688;33.130;-117.188;2024-01-10T04:29:03;99775.34;;;9.26;83.16
37848;BME280;23688;33.130;-117.188;2024-01-10T04:31:29;99784.03;;;9.27;83.19
37848;BME280;23688;33.130;-117.188;2024-01-10T04:33:55;99782.09;;;9.23;83.34
37848;BME280;23688;33.130;-117.188;2024-01-10T04:36:22;99781.34;;;9.25;83.16
37848;BME280;23688;33.130;-117.188;2024-01-10T04:38:48;99771.72;;;9.23;83.28
37848;BME280;23688;33.130;-117.188;2024-01-10T04:41:14;99779.41;;;9.21;83.01
37848;BME280;23688;33.130;-117.188;2024-01-10T04:43:41;99778.63;;;9.22;82.91
37848;BME280;23688;33.130;-117.188;2024-01-10T04:46:07;99776.06;;;9.24;82.65
37848;BME280;23688;33.130;-117.188;2024-01-10T04:48:36;99733.38;;;8.99;82.70
37848;BME280;23688;33.130;-117.188;2024-01-10T04:51:03;99766.88;;;9.12;82.66
37848;BME280;23688;33.130;-117.188;2024-01-10T04:53:29;99772.81;;;9.10;82.35
37848;BME280;23688;33.130;-117.188;2024-01-10T04:55:56;99774.56;;;9.11;82.29
37848;BME280;23688;33.130;-117.188;2024-01-10T04:58:24;99769.97;;;9.05;82.59
37848;BME280;23688;33.130;-117.188;2024-01-10T05:00:51;99760.16;;;8.99;82.54
37848;BME280;23688;33.130;-117.188;2024-01-10T05:03:17;99758.88;;;9.08;82.55
37848;BME280;23688;33.130;-117.188;2024-01-10T05:05:43;99741.25;;;9.00;82.58
37848;BME280;23688;33.130;-117.188;2024-01-10T05:08:10;99760.34;;;9.03;82.86
37848;BME280;23688;33.130;-117.188;2024-01-10T05:10:36;99768.19;;;9.04;82.80
37848;BME280;23688;33.130;-117.188;2024-01-10T05:13:02;99777.50;;;9.00;82.90
37848;BME280;23688;33.130;-117.188;2024-01-10T05:15:29;99752.59;;;8.86;82.54
37848;BME280;23688;33.130;-117.188;2024-01-10T05:17:55;99775.06;;;8.87;82.48
37848;BME280;23688;33.130;-117.188;2024-01-10T05:20:21;99783.91;;;8.91;82.39
37848;BME280;23688;33.130;-117.188;2024-01-10T05:22:48;99774.81;;;8.83;82.37
37848;BME280;23688;33.130;-117.188;2024-01-10T05:25:14;99771.59;;;8.70;82.29
37848;BME280;23688;33.130;-117.188;2024-01-10T05:27:44;99784.31;;;8.66;82.13
37848;BME280;23688;33.130;-117.188;2024-01-10T05:30:10;99785.72;;;8.61;81.14
37848;BME280;23688;33.130;-117.188;2024-01-10T05:32:38;99769.75;;;8.51;80.22
37848;BME280;23688;33.130;-117.188;2024-01-10T05:35:05;99785.06;;;8.48;79.70
37848;BME280;23688;33.130;-117.188;2024-01-10T05:37:33;99785.91;;;8.47;79.72
37848;BME280;23688;33.130;-117.188;2024-01-10T05:39:59;99770.56;;;8.35;80.15
37848;BME280;23688;33.130;-117.188;2024-01-10T05:42:26;99789.94;;;8.42;80.39
37848;BME280;23688;33.130;-117.188;2024-01-10T05:44:52;99782.06;;;8.41;79.87
37848;BME280;23688;33.130;-117.188;2024-01-10T05:47:19;99787.34;;;8.42;79.88
37848;BME280;23688;33.130;-117.188;2024-01-10T05:49:45;99799.56;;;8.45;79.09
37848;BME280;23688;33.130;-117.188;2024-01-10T05:52:11;99794.13;;;8.40;78.80
37848;BME280;23688;33.130;-117.188;2024-01-10T05:54:38;99793.06;;;8.36;78.42
37848;BME280;23688;33.130;-117.188;2024-01-10T05:57:05;99788.34;;;8.29;77.85
37848;BME280;23688;33.130;-117.188;2024-01-10T05:59:31;99787.44;;;8.29;77.94
37848;BME280;23688;33.130;-117.188;2024-01-10T06:01:57;99779.09;;;8.18;77.43
37848;BME280;23688;33.130;-117.188;2024-01-10T06:04:28;99761.19;;;8.06;77.18
37848;BME280;23688;33.130;-117.188;2024-01-10T06:07:00;99782.72;;;8.05;77.48
37848;BME280;23688;33.130;-117.188;2024-01-10T06:09:27;99791.44;;;8.07;77.52
37848;BME280;23688;33.130;-117.188;2024-01-10T06:11:53;99767.50;;;7.95;77.51
37848;BME280;23688;33.130;-117.188;2024-01-10T06:14:19;99795.28;;;7.99;77.78
37848;BME280;23688;33.130;-117.188;2024-01-10T06:16:46;99774.72;;;7.86;78.11
37848;BME280;23688;33.130;-117.188;2024-01-10T06:19:12;99776.84;;;7.93;77.79
37848;BME280;23688;33.130;-117.188;2024-01-10T06:21:38;99768.84;;;7.88;77.61
37848;BME280;23688;33.130;-117.188;2024-01-10T06:24:05;99753.06;;;7.84;77.31
37848;BME280;23688;33.130;-117.188;2024-01-10T06:26:31;99741.31;;;7.74;77.87
37848;BME280;23688;33.130;-117.188;2024-01-10T06:28:58;99770.78;;;7.78;78.22
37848;BME280;23688;33.130;-117.188;2024-01-10T06:31:24;99752.28;;;7.70;78.59
37848;BME280;23688;33.130;-117.188;2024-01-10T06:33:50;99768.31;;;7.79;78.55
37848;BME280;23688;33.130;-117.188;2024-01-10T06:36:17;99752.47;;;7.73;78.73
37848;BME280;23688;33.130;-117.188;2024-01-10T06:38:43;99758.16;;;7.67;79.49
37848;BME280;23688;33.130;-117.188;2024-01-10T06:41:10;99759.03;;;7.68;79.14
37848;BME280;23688;33.130;-117.188;2024-01-10T06:43:37;99745.94;;;7.65;78.93
37848;BME280;23688;33.130;-117.188;2024-01-10T06:46:03;99753.88;;;7.68;78.29
37848;BME280;23688;33.130;-117.188;2024-01-10T06:48:29;99759.75;;;7.65;78.46
37848;BME280;23688;33.130;-117.188;2024-01-10T06:50:57;99761.63;;;7.68;77.54
37848;BME280;23688;33.130;-117.188;2024-01-10T06:53:23;99750.34;;;7.66;77.80
37848;BME280;23688;33.130;-117.188;2024-01-10T06:55:50;99738.75;;;7.59;76.81
37848;BME280;23688;33.130;-117.188;2024-01-10T06:58:16;99748.63;;;7.66;76.70
37848;BME280;23688;33.130;-117.188;2024-01-10T07:00:43;99756.66;;;7.71;76.67
37848;BME280;23688;33.130;-117.188;2024-01-10T07:03:09;99760.22;;;7.73;75.90
37848;BME280;23688;33.130;-117.188;2024-01-10T07:05:35;99747.66;;;7.64;76.07
37848;BME280;23688;33.130;-117.188;2024-01-10T07:08:02;99747.56;;;7.63;76.45
37848;BME280;23688;33.130;-117.188;2024-01-10T07:10:29;99740.97;;;7.53;76.13
37848;BME280;23688;33.130;-117.188;2024-01-10T07:12:56;99763.88;;;7.62;76.73
37848;BME280;23688;33.130;-117.188;2024-01-10T07:15:22;99761.38;;;7.63;76.86
37848;BME280;23688;33.130;-117.188;2024-01-10T07:17:48;99750.84;;;7.60;76.58
37848;BME280;23688;33.130;-117.188;2024-01-10T07:20:15;99755.84;;;7.57;76.49
37848;BME280;23688;33.130;-117.188;2024-01-10T07:22:42;99761.28;;;7.62;76.00
37848;BME280;23688;33.130;-117.188;2024-01-10T07:25:10;99757.47;;;7.55;75.67
37848;BME280;23688;33.130;-117.188;2024-01-10T07:27:45;99759.53;;;7.61;75.69
37848;BME280;23688;33.130;-117.188;2024-01-10T07:30:12;99772.34;;;7.59;76.18
37848;BME280;23688;33.130;-117.188;2024-01-10T07:32:44;99767.06;;;7.58;76.15
37848;BME280;23688;33.130;-117.188;2024-01-10T07:35:12;99757.47;;;7.55;76.21
37848;BME280;23688;33.130;-117.188;2024-01-10T07:37:42;99749.38;;;7.49;75.79
37848;BME280;23688;33.130;-117.188;2024-01-10T07:40:09;99734.13;;;7.39;75.77
37848;BME280;23688;33.130;-117.188;2024-01-10T07:42:39;99730.75;;;7.40;76.47
37848;BME280;23688;33.130;-117.188;2024-01-10T07:45:06;99729.16;;;7.42;76.26
37848;BME280;23688;33.130;-117.188;2024-01-10T07:47:34;99751.13;;;7.50;75.38
37848;BME280;23688;33.130;-117.188;2024-01-10T07:50:07;99745.69;;;7.45;75.37
37848;BME280;23688;33.130;-117.188;2024-01-10T07:52:34;99731.63;;;7.40;76.01
37848;BME280;23688;33.130;-117.188;2024-01-10T07:55:01;99745.38;;;7.39;75.89
37848;BME280;23688;33.130;-117.188;2024-01-10T07:57:27;99742.34;;;7.32;76.11
37848;BME280;23688;33.130;-117.188;2024-01-10T07:59:54;99754.19;;;7.28;76.26
37848;BME280;23688;33.130;-117.188;2024-01-10T08:02:20;99746.25;;;7.25;76.67
37848;BME280;23688;33.130;-117.188;2024-01-10T08:04:46;99728.44;;;7.15;76.75
37848;BME280;23688;33.130;-117.188;2024-01-10T08:07:13;99736.44;;;7.19;76.05
37848;BME280;23688;33.130;-117.188;2024-01-10T08:09:40;99731.22;;;7.18;76.53
37848;BME280;23688;33.130;-117.188;2024-01-10T08:12:06;99720.44;;;7.10;76.56
37848;BME280;23688;33.130;-117.188;2024-01-10T08:14:33;99725.16;;;7.17;76.48
37848;BME280;23688;33.130;-117.188;2024-01-10T08:17:02;99718.38;;;7.19;76.30
37848;BME280;23688;33.130;-117.188;2024-01-10T08:19:29;99713.13;;;7.18;76.77
37848;BME280;23688;33.130;-117.188;2024-01-10T08:21:55;99715.63;;;7.16;76.95
37848;BME280;23688;33.130;-117.188;2024-01-10T08:24:22;99706.38;;;7.05;76.36
37848;BME280;23688;33.130;-117.188;2024-01-10T08:26:49;99717.22;;;7.14;76.56
37848;BME280;23688;33.130;-117.188;2024-01-10T08:29:18;99721.66;;;7.17;76.76
37848;BME280;23688;33.130;-117.188;2024-01-10T08:31:45;99718.63;;;7.09;76.84
37848;BME280;23688;33.130;-117.188;2024-01-10T08:34:11;99711.59;;;7.06;76.26
37848;BME280;23688;33.130;-117.188;2024-01-10T08:36:38;99724.00;;;7.12;76.58
37848;BME280;23688;33.130;-117.188;2024-01-10T08:39:04;99729.22;;;7.14;76.51
37848;BME280;23688;33.130;-117.188;2024-01-10T08:41:33;99723.19;;;7.13;76.28
37848;BME280;23688;33.130;-117.188;2024-01-10T08:44:02;99712.47;;;7.07;76.85
37848;BME280;23688;33.130;-117.188;2024-01-10T08:46:28;99711.16;;;7.14;76.71
37848;BME280;23688;33.130;-117.188;2024-01-10T08:48:54;99712.59;;;7.08;76.49
37848;BME280;23688;33.130;-117.188;2024-01-10T08:51:20;99721.50;;;7.14;76.28
37848;BME280;23688;33.130;-117.188;2024-01-10T08:53:47;99707.44;;;7.08;76.95
37848;BME280;23688;33.130;-117.188;2024-01-10T08:56:15;99712.97;;;7.00;76.88
37848;BME280;23688;33.130;-117.188;2024-01-10T08:58:44;99719.78;;;6.99;77.14
37848;BME280;23688;33.130;-117.188;2024-01-10T09:01:10;99706.72;;;6.96;76.85
37848;BME280;23688;33.130;-117.188;2024-01-10T09:03:36;99718.19;;;7.01;77.50
37848;BME280;23688;33.130;-117.188;2024-01-10T09:06:04;99724.25;;;7.02;76.68
37848;BME280;23688;33.130;-117.188;2024-01-10T09:08:34;99720.16;;;6.91;77.14
37848;BME280;23688;33.130;-117.188;2024-01-10T09:11:00;99719.06;;;6.87;77.70
37848;BME280;23688;33.130;-117.188;2024-01-10T09:13:26;99723.78;;;6.79;77.69
37848;BME280;23688;33.130;-117.188;2024-01-10T09:15:53;99732.50;;;6.81;77.91
37848;BME280;23688;33.130;-117.188;2024-01-10T09:18:19;99721.78;;;6.75;78.10
37848;BME280;23688;33.130;-117.188;2024-01-10T09:20:46;99729.53;;;6.75;77.81
37848;BME280;23688;33.130;-117.188;2024-01-10T09:23:14;99722.50;;;6.73;78.39
37848;BME280;23688;33.130;-117.188;2024-01-10T09:25:41;99720.47;;;6.67;78.99
37848;BME280;23688;33.130;-117.188;2024-01-10T09:28:07;99717.59;;;6.62;79.85
37848;BME280;23688;33.130;-117.188;2024-01-10T09:30:34;99720.88;;;6.60;79.63
37848;BME280;23688;33.130;-117.188;2024-01-10T09:33:00;99698.72;;;6.49;79.55
37848;BME280;23688;33.130;-117.188;2024-01-10T09:35:26;99702.91;;;6.47;80.82
37848;BME280;23688;33.130;-117.188;2024-01-10T09:37:53;99687.75;;;6.38;80.35
37848;BME280;23688;33.130;-117.188;2024-01-10T09:40:22;99697.28;;;6.39;80.58
37848;BME280;23688;33.130;-117.188;2024-01-10T09:42:53;99705.00;;;6.39;80.61
37848;BME280;23688;33.130;-117.188;2024-01-10T09:45:23;99704.91;;;6.37;81.17
37848;BME280;23688;33.130;-117.188;2024-01-10T09:47:56;99687.59;;;6.21;81.92
37848;BME280;23688;33.130;-117.188;2024-01-10T09:50:26;99693.25;;;6.29;82.08
37848;BME280;23688;33.130;-117.188;2024-01-10T09:53:06;99703.75;;;6.32;82.77
37848;BME280;23688;33.130;-117.188;2024-01-10T09:55:36;99705.63;;;6.35;82.61
37848;BME280;23688;33.130;-117.188;2024-01-10T09:58:06;99707.19;;;6.33;82.47
37848;BME280;23688;33.130;-117.188;2024-01-10T10:00:34;99696.78;;;6.31;82.64
37848;BME280;23688;33.130;-117.188;2024-01-10T10:03:08;99707.09;;;6.31;82.25
37848;BME280;23688;33.130;-117.188;2024-01-10T10:05:41;99688.59;;;6.24;82.55
37848;BME280;23688;33.130;-117.188;2024-01-10T10:08:09;99657.53;;;6.07;82.68
37848;BME280;23688;33.130;-117.188;2024-01-10T10:10:36;99677.09;;;6.18;82.46
37848;BME280;23688;33.130;-117.188;2024-01-10T10:13:09;99679.69;;;6.18;82.56
37848;BME280;23688;33.130;-117.188;2024-01-10T10:15:39;99656.91;;;6.11;82.31
37848;BME280;23688;33.130;-117.188;2024-01-10T10:18:05;99671.66;;;6.14;82.61
37848;BME280;23688;33.130;-117.188;2024-01-10T10:20:32;99650.41;;;6.03;82.35
37848;BME280;23688;33.130;-117.188;2024-01-10T10:23:09;99658.00;;;6.15;81.94
37848;BME280;23688;33.130;-117.188;2024-01-10T10:25:44;99658.00;;;6.15;82.44
37848;BME280;23688;33.130;-117.188;2024-01-10T10:28:11;99662.22;;;6.14;81.40
37848;BME280;23688;33.130;-117.188;2024-01-10T10:30:38;99656.41;;;6.17;81.46
37848;BME280;23688;33.130;-117.188;2024-01-10T10:33:05;99648.56;;;6.15;81.52
37848;BME280;23688;33.130;-117.188;2024-01-10T10:35:34;99647.69;;;6.15;80.70
37848;BME280;23688;33.130;-117.188;2024-01-10T10:38:00;99646.00;;;6.15;79.92
37848;BME280;23688;33.130;-117.188;2024-01-10T10:40:29;99634.50;;;6.10;80.47
37848;BME280;23688;33.130;-117.188;2024-01-10T10:42:57;99643.13;;;6.11;79.98
37848;BME280;23688;33.130;-117.188;2024-01-10T10:45:24;99655.31;;;6.13;79.41
37848;BME280;23688;33.130;-117.188;2024-01-10T10:47:59;99648.00;;;6.06;80.45
37848;BME280;23688;33.130;-117.188;2024-01-10T10:50:29;99654.84;;;6.06;80.19
37848;BME280;23688;33.130;-117.188;2024-01-10T10:52:59;99659.41;;;6.10;79.81
37848;BME280;23688;33.130;-117.188;2024-01-10T10:55:26;99649.09;;;6.10;80.25
37848;BME280;23688;33.130;-117.188;2024-01-10T10:57:54;99646.22;;;6.05;80.25
37848;BME280;23688;33.130;-117.188;2024-01-10T11:00:22;99646.72;;;5.99;80.02
37848;BME280;23688;33.130;-117.188;2024-01-10T11:02:56;99638.38;;;6.04;79.62
37848;BME280;23688;33.130;-117.188;2024-01-10T11:05:26;99630.19;;;5.96;79.40
37848;BME280;23688;33.130;-117.188;2024-01-10T11:07:54;99638.81;;;5.96;79.29
37848;BME280;23688;33.130;-117.188;2024-01-10T11:10:31;99655.38;;;6.00;79.50
37848;BME280;23688;33.130;-117.188;2024-01-10T11:21:24;99644.06;;;5.98;79.81
37848;BME280;23688;33.130;-117.188;2024-01-10T11:23:58;99650.09;;;5.98;79.08
37848;BME280;23688;33.130;-117.188;2024-01-10T11:26:25;99646.53;;;5.96;79.47
37848;BME280;23688;33.130;-117.188;2024-01-10T11:28:52;99653.66;;;6.00;78.95
37848;BME280;23688;33.130;-117.188;2024-01-10T11:31:28;99631.78;;;5.94;79.05
37848;BME280;23688;33.130;-117.188;2024-01-10T11:34:01;99642.47;;;6.00;78.51
37848;BME280;23688;33.130;-117.188;2024-01-10T11:36:29;99639.00;;;5.99;78.29
37848;BME280;23688;33.130;-117.188;2024-01-10T11:38:58;99627.13;;;5.88;78.60
37848;BME280;23688;33.130;-117.188;2024-01-10T11:46:42;99631.78;;;5.94;77.94
37848;BME280;23688;33.130;-117.188;2024-01-10T11:49:09;99617.41;;;5.84;77.92
37848;BME280;23688;33.130;-117.188;2024-01-10T11:51:38;99643.97;;;5.96;77.50
37848;BME280;23688;33.130;-117.188;2024-01-10T11:54:04;99634.34;;;5.94;77.93
37848;BME280;23688;33.130;-117.188;2024-01-10T11:56:43;99615.00;;;5.87;77.34
37848;BME280;23688;33.130;-117.188;2024-01-10T11:59:13;99624.34;;;5.98;77.14
37848;BME280;23688;33.130;-117.188;2024-01-10T12:01:42;99620.16;;;6.00;76.97
37848;BME280;23688;33.130;-117.188;2024-01-10T12:04:09;99625.09;;;6.11;75.79
37848;BME280;23688;33.130;-117.188;2024-01-10T12:06:36;99623.09;;;6.07;76.14
37848;BME280;23688;33.130;-117.188;2024-01-10T12:09:03;99617.94;;;6.07;76.22
37848;BME280;23688;33.130;-117.188;2024-01-10T12:11:41;99625.69;;;6.07;75.51
37848;BME280;23688;33.130;-117.188;2024-01-10T12:14:10;99616.19;;;6.06;75.46
37848;BME280;23688;33.130;-117.188;2024-01-10T12:16:37;99628.25;;;6.07;75.75
37848;BME280;23688;33.130;-117.188;2024-01-10T12:19:04;99613.84;;;5.95;75.92
37848;BME280;23688;33.130;-117.188;2024-01-10T12:21:31;99620.16;;;6.00;75.53
37848;BME280;23688;33.130;-117.188;2024-01-10T12:23:57;99620.00;;;5.97;75.58
37848;BME280;23688;33.130;-117.188;2024-01-10T12:26:24;99623.44;;;5.98;75.59
37848;BME280;23688;33.130;-117.188;2024-01-10T12:28:57;99630.31;;;5.97;75.65
37848;BME280;23688;33.130;-117.188;2024-01-10T12:31:28;99627.50;;;5.94;75.78
37848;BME280;23688;33.130;-117.188;2024-01-10T12:33:58;99629.88;;;5.91;75.97
37848;BME280;23688;33.130;-117.188;2024-01-10T12:36:25;99625.53;;;5.90;75.74
37848;BME280;23688;33.130;-117.188;2024-01-10T12:38:51;99622.84;;;5.89;75.94
37848;BME280;23688;33.130;-117.188;2024-01-10T12:41:18;99620.25;;;5.89;76.36
37848;BME280;23688;33.130;-117.188;2024-01-10T12:43:54;99626.31;;;5.89;75.89
37848;BME280;23688;33.130;-117.188;2024-01-10T12:46:22;99627.19;;;5.90;75.60
37848;BME280;23688;33.130;-117.188;2024-01-10T12:49:03;99612.84;;;5.80;76.40
37848;BME280;23688;33.130;-117.188;2024-01-10T12:51:34;99624.31;;;5.85;76.33